Time;durP1;ratioP1;P1;durP2;ratioP2;P2;SDS_P1;SDS_P2;PMS_P1;PMS_P2;Temp;Humidity;BMP_temperature;BMP_pressure;BME280_temperature;BME280_humidity;BME280_pressure;Samples;Min_cycle;Max_cycle;Signal;HPM_P1;HPM_P2
2022/05/31 00:02:16;;;;;;;15.82;9.90;;;;;;;7.31;84.58;101316.22;4975681;28;20501;-84
2022/05/31 00:04:41;;;;;;;15.15;9.55;;;;;;;7.79;84.55;101384.44;4975726;28;20041;-85
2022/05/31 00:07:07;;;;;;;17.10;11.13;;;;;;;7.32;84.79;101317.88;4975753;28;20030;-85
2022/05/31 00:09:35;;;;;;;13.85;9.10;;;;;;;7.22;85.14;101304.56;4974846;28;20037;-83
2022/05/31 00:12:00;;;;;;;16.80;9.43;;;;;;;7.59;84.59;101364.72;4975583;28;20043;-84
2022/05/31 00:14:27;;;;;;;15.80;9.85;;;;;;;7.73;84.72;101376.06;4975301;28;20110;-84
2022/05/31 00:16:52;;;;;;;14.00;10.50;;;;;;;7.75;84.94;101381.16;4975624;28;20101;-84
2022/05/31 00:19:18;;;;;;;18.77;11.00;;;;;;;7.77;85.09;101381.94;4975560;28;20075;-82
2022/05/31 00:21:56;;;;;;;15.90;9.82;;;;;;;7.71;85.26;101380.47;4975696;28;20034;-85
2022/05/31 00:24:22;;;;;;;16.42;10.95;;;;;;;7.54;85.33;101346.91;4975293;28;20030;-85
2022/05/31 00:26:48;;;;;;;15.90;10.10;;;;;;;7.72;85.02;101376.16;4975262;28;20023;-83
2022/05/31 00:29:14;;;;;;;17.10;10.75;;;;;;;7.71;84.92;101375.31;4975436;28;20026;-85
2022/05/31 00:31:45;;;;;;;15.32;10.32;;;;;;;7.67;84.75;101378.06;4975087;28;20030;-84
2022/05/31 00:34:11;;;;;;;15.82;10.38;;;;;;;7.33;84.66;101325.50;4975211;28;20058;-83
2022/05/31 00:36:39;;;;;;;16.42;10.70;;;;;;;7.58;84.96;101381.88;4975278;28;20050;-83
2022/05/31 00:39:12;;;;;;;16.35;11.10;;;;;;;7.58;85.18;101375.91;4975118;28;20039;-85
2022/05/31 00:41:39;;;;;;;14.88;10.50;;;;;;;7.57;85.44;101379.34;4974997;28;20398;-83
2022/05/31 00:44:07;;;;;;;15.75;10.98;;;;;;;7.57;85.88;101376.78;4973682;28;20489;-85
2022/05/31 00:46:53;;;;;;;15.68;11.13;;;;;;;7.57;85.65;101377.63;4974959;28;20066;-84
2022/05/31 00:49:31;;;;;;;15.40;9.93;;;;;;;7.56;85.82;101378.50;4974960;28;20031;-80
2022/05/31 00:52:00;;;;;;;14.25;10.68;;;;;;;7.15;85.60;101316.00;4974920;28;20106;-86
2022/05/31 00:54:30;;;;;;;17.08;10.32;;;;;;;7.55;85.97;101381.16;4974902;28;20051;-79
2022/05/31 00:56:57;;;;;;;15.70;10.30;;;;;;;7.53;86.19;101378.66;4975078;28;20053;-81
2022/05/31 00:59:31;;;;;;;15.13;10.77;;;;;;;7.53;86.26;101375.25;4974611;28;20118;-79
2022/05/31 01:01:57;;;;;;;14.90;10.95;;;;;;;7.50;86.33;101376.22;4974746;28;20122;-79
2022/05/31 01:05:00;;;;;;;14.52;10.73;;;;;;;7.37;85.80;101349.34;4974600;28;20101;-79
2022/05/31 01:07:25;;;;;;;16.38;11.38;;;;;;;7.44;85.99;101374.72;4974452;28;20066;-82
2022/05/31 01:09:52;;;;;;;15.82;10.60;;;;;;;7.42;86.03;101373.13;4974588;28;20061;-85
2022/05/31 01:12:32;;;;;;;15.85;11.07;;;;;;;6.89;86.10;101288.81;4974538;28;20039;-79
2022/05/31 01:14:58;;;;;;;17.23;11.10;;;;;;;7.32;86.04;101367.53;4974210;28;20035;-78
2022/05/31 01:17:24;;;;;;;14.75;10.30;;;;;;;7.34;86.11;101375.16;4974270;28;20063;-84
2022/05/31 01:19:57;;;;;;;15.15;10.27;;;;;;;7.31;85.75;101367.59;4974498;28;20054;-85
2022/05/31 01:22:39;;;;;;;16.85;10.65;;;;;;;7.32;86.28;101371.81;4974492;28;20030;-86
2022/05/31 01:25:38;;;;;;;16.02;10.63;;;;;;;7.33;85.95;101365.78;4974342;28;20019;-79
2022/05/31 01:28:22;;;;;;;15.68;10.80;;;;;;;7.31;86.44;101360.72;4973993;28;20055;-79
2022/05/31 01:31:08;;;;;;;16.65;10.35;;;;;;;7.28;86.33;101360.84;4974298;28;20109;-77
2022/05/31 01:33:43;;;;;;;19.05;10.10;;;;;;;7.29;86.14;101366.81;4974111;28;20467;-83
2022/05/31 01:36:17;;;;;;;16.55;10.52;;;;;;;7.22;86.45;101361.09;4973963;28;20037;-77
2022/05/31 01:38:58;;;;;;;14.98;10.27;;;;;;;7.16;86.59;101351.88;4974172;28;20475;-78
2022/05/31 01:41:31;;;;;;;13.93;10.00;;;;;;;7.05;86.84;101342.94;4973794;28;20030;-78
2022/05/31 01:44:01;;;;;;;17.10;10.98;;;;;;;7.10;87.41;101354.72;4973032;28;20395;-78
2022/05/31 01:46:29;;;;;;;15.45;10.93;;;;;;;7.11;87.26;101355.56;4973723;28;20031;-76
2022/05/31 01:48:57;;;;;;;15.98;10.90;;;;;;;7.08;87.61;101353.09;4973750;28;20109;-78
2022/05/31 01:51:23;;;;;;;14.75;10.77;;;;;;;7.04;87.62;101352.38;4974028;28;20027;-77
2022/05/31 01:53:50;;;;;;;16.13;11.27;;;;;;;7.01;87.90;101354.25;4974163;28;20394;-81
2022/05/31 01:56:20;;;;;;;14.70;10.93;;;;;;;6.97;87.98;101357.81;4973893;28;20023;-78
2022/05/31 01:58:47;;;;;;;18.27;11.82;;;;;;;5.92;87.46;101188.31;4972880;28;20031;-85
2022/05/31 02:01:13;;;;;;;19.42;10.80;;;;;;;6.46;87.42;101280.22;4973640;28;20031;-86
2022/05/31 02:03:41;;;;;;;16.65;10.90;;;;;;;6.63;87.28;101312.94;4973689;28;20125;-85
2022/05/31 02:06:24;;;;;;;16.13;11.05;;;;;;;6.59;87.75;101313.97;4973801;28;20034;-83
2022/05/31 02:08:49;;;;;;;16.80;10.93;;;;;;;6.85;87.27;101357.41;4973732;28;20031;-78
2022/05/31 02:11:14;;;;;;;16.23;10.93;;;;;;;6.80;87.24;101351.63;4973939;28;20109;-77
2022/05/31 02:13:40;;;;;;;17.88;10.60;;;;;;;6.77;87.76;101351.72;4973415;28;20126;-79
2022/05/31 02:16:05;;;;;;;16.33;10.57;;;;;;;6.73;87.88;101360.44;4973403;28;20423;-85
2022/05/31 02:21:14;;;;;;;17.02;10.60;;;;;;;6.73;88.00;101351.91;4974115;28;20037;-82
2022/05/31 02:23:40;;;;;;;17.08;11.63;;;;;;;6.49;88.39;101316.03;4973457;28;20114;-82
2022/05/31 02:26:05;;;;;;;18.30;11.25;;;;;;;6.73;88.36;101354.47;4973526;28;20034;-80
2022/05/31 02:28:30;;;;;;;16.55;12.00;;;;;;;6.74;88.92;101345.88;4973736;28;20026;-85
2022/05/31 02:30:55;;;;;;;17.75;10.68;;;;;;;6.82;89.21;101357.53;4972036;28;20466;-84
2022/05/31 02:33:21;;;;;;;16.20;11.88;;;;;;;6.60;89.24;101311.34;4977477;28;20031;-85
2022/05/31 02:35:47;;;;;;;17.58;12.35;;;;;;;6.90;89.88;101344.41;4977657;28;20030;-80
2022/05/31 02:38:13;;;;;;;17.15;11.45;;;;;;;6.65;89.97;101293.19;4977176;28;20027;-86
2022/05/31 02:40:38;;;;;;;19.73;11.85;;;;;;;7.01;89.80;101334.53;4977448;28;20078;-86
2022/05/31 02:43:04;;;;;;;15.98;11.52;;;;;;;6.01;90.05;101168.28;4977382;28;20546;-86
2022/05/31 02:45:29;;;;;;;15.38;11.05;;;;;;;7.12;89.58;101336.69;4977034;28;20045;-85
2022/05/31 02:47:55;;;;;;;16.50;12.13;;;;;;;6.74;89.50;101272.28;4976991;28;20467;-87
2022/05/31 02:50:20;;;;;;;17.45;12.13;;;;;;;6.93;89.78;101292.94;4977103;28;20078;-82
2022/05/31 02:52:46;;;;;;;16.15;11.10;;;;;;;7.17;89.48;101327.88;4977350;28;20031;-86
2022/05/31 02:55:11;;;;;;;17.75;12.25;;;;;;;7.17;89.51;101330.44;4976929;28;20081;-81
2022/05/31 02:57:37;;;;;;;17.00;11.50;;;;;;;7.21;89.39;101335.47;4977047;28;20037;-87
2022/05/31 03:00:04;;;;;;;19.20;12.15;;;;;;;6.97;89.48;101294.47;4976933;28;20109;-86
2022/05/31 03:02:29;;;;;;;16.52;11.25;;;;;;;7.29;89.70;101341.13;4976645;28;20459;-83
2022/05/31 03:04:55;;;;;;;18.45;12.18;;;;;;;7.29;89.72;101339.41;4976785;28;20102;-85
2022/05/31 03:07:20;;;;;;;21.13;12.25;;;;;;;7.35;89.34;101339.13;4976877;28;20042;-84
2022/05/31 03:09:46;;;;;;;19.70;12.65;;;;;;;7.23;89.43;101306.25;4976813;28;20034;-87
2022/05/31 03:12:16;;;;;;;16.80;11.95;;;;;;;7.12;89.74;101285.31;4976566;28;20491;-86
2022/05/31 03:14:49;;;;;;;16.50;11.80;;;;;;;7.41;89.45;101333.75;4976683;28;20058;-85
2022/05/31 03:17:27;;;;;;;19.58;12.30;;;;;;;7.42;89.76;101332.84;4976409;28;20107;-80
2022/05/31 03:20:05;;;;;;;19.05;12.43;;;;;;;7.42;90.01;101327.69;4976409;28;20023;-86
2022/05/31 03:22:41;;;;;;;20.05;12.43;;;;;;;7.19;89.81;101286.72;4976566;28;20357;-79
2022/05/31 03:25:14;;;;;;;16.42;11.77;;;;;;;7.33;90.12;101307.53;4976444;28;20041;-82
2022/05/31 03:27:40;;;;;;;18.42;12.50;;;;;;;7.29;90.44;101292.31;4976254;28;20061;-81
2022/05/31 03:30:06;;;;;;;17.45;13.00;;;;;;;7.49;90.28;101330.84;4976571;28;20062;-85
2022/05/31 03:32:34;;;;;;;18.95;12.88;;;;;;;7.48;90.23;101329.19;4976228;28;20022;-85
2022/05/31 03:35:00;;;;;;;18.77;11.98;;;;;;;7.40;90.61;101305.56;4976100;28;20031;-87
2022/05/31 03:37:25;;;;;;;18.48;13.15;;;;;;;7.51;90.75;101315.38;4976405;28;20031;-85
2022/05/31 03:39:51;;;;;;;20.80;13.75;;;;;;;7.32;90.45;101275.03;4976178;28;20029;-85
2022/05/31 03:42:16;;;;;;;20.67;13.65;;;;;;;7.30;90.54;101266.56;4976043;28;20471;-86
2022/05/31 03:44:41;;;;;;;21.40;13.98;;;;;;;7.48;90.49;101296.63;4975234;28;20106;-79
2022/05/31 03:47:07;;;;;;;17.88;12.77;;;;;;;7.73;90.27;101326.41;4975473;28;20033;-88
2022/05/31 03:49:32;;;;;;;19.63;13.27;;;;;;;7.72;90.45;101311.88;4975989;28;20019;-86
2022/05/31 03:52:00;;;;;;;19.63;12.77;;;;;;;7.61;90.53;101293.53;4976080;28;20019;-79
2022/05/31 03:54:26;;;;;;;21.48;13.68;;;;;;;7.80;90.58;101316.69;4975936;28;20478;-80
2022/05/31 03:56:52;;;;;;;20.83;13.18;;;;;;;7.59;90.50;101282.47;4975788;28;20023;-80
2022/05/31 03:59:18;;;;;;;20.42;13.93;;;;;;;7.84;90.44;101325.94;4975958;28;20030;-86
2022/05/31 04:01:43;;;;;;;18.98;13.88;;;;;;;7.93;90.63;101325.53;4973955;28;20181;-84
2022/05/31 04:04:09;;;;;;;18.70;13.38;;;;;;;7.97;90.74;101327.91;4975811;28;20114;-80
2022/05/31 04:06:35;;;;;;;19.08;12.55;;;;;;;8.03;89.93;101326.78;4975654;28;20109;-82
2022/05/31 04:09:02;;;;;;;22.23;13.85;;;;;;;8.08;90.09;101324.88;4975721;28;20027;-79
2022/05/31 04:11:27;;;;;;;24.67;14.85;;;;;;;8.05;89.91;101314.69;4975638;28;20027;-82
2022/05/31 04:13:54;;;;;;;25.10;14.88;;;;;;;8.00;88.88;101290.94;4975209;28;20117;-87
2022/05/31 04:16:20;;;;;;;24.25;15.32;;;;;;;8.16;88.14;101309.94;4975661;28;20057;-84
2022/05/31 04:18:46;;;;;;;23.52;14.52;;;;;;;8.25;88.08;101311.22;4974104;28;20035;-85
2022/05/31 04:21:17;;;;;;;25.10;16.00;;;;;;;8.30;88.16;101312.69;4975523;28;20037;-79
2022/05/31 04:23:58;;;;;;;24.45;14.77;;;;;;;8.38;88.86;101319.28;4975423;28;20031;-87
2022/05/31 04:26:29;;;;;;;21.58;14.60;;;;;;;8.45;88.19;101320.63;4975179;28;20526;-86
2022/05/31 04:28:55;;;;;;;23.75;15.07;;;;;;;8.33;88.74;101291.13;4975177;28;20027;-80
2022/05/31 04:31:21;;;;;;;28.92;16.65;;;;;;;8.41;87.11;101288.25;4975344;28;20034;-86
2022/05/31 04:33:47;;;;;;;27.38;16.52;;;;;;;8.60;86.54;101317.38;4975392;28;20070;-82
2022/05/31 04:36:16;;;;;;;30.88;17.48;;;;;;;8.66;86.73;101314.50;4974045;28;20430;-85
2022/05/31 04:38:41;;;;;;;33.97;17.33;;;;;;;8.43;86.65;101276.97;4975092;28;20022;-81
2022/05/31 04:41:14;;;;;;;29.63;17.73;;;;;;;8.59;86.52;101297.69;4974932;28;20041;-81
2022/05/31 04:43:39;;;;;;;34.28;18.15;;;;;;;8.81;86.74;101318.09;4974922;28;20038;-80
2022/05/31 04:46:16;;;;;;;25.45;17.75;;;;;;;8.84;86.72;101317.94;4974851;28;20031;-86
2022/05/31 04:48:41;;;;;;;34.88;18.95;;;;;;;8.43;85.79;101233.22;4974815;28;20538;-79
2022/05/31 04:51:07;;;;;;;32.53;18.50;;;;;;;8.89;84.44;101277.34;4974941;28;20103;-82
2022/05/31 04:53:32;;;;;;;30.75;19.30;;;;;;;9.29;85.82;101312.28;4974710;28;20081;-84
2022/05/31 04:56:06;;;;;;;29.40;19.60;;;;;;;9.31;83.96;101300.16;4974396;28;20479;-80
2022/05/31 04:58:32;;;;;;;32.10;19.40;;;;;;;9.44;84.14;101290.91;4974453;28;20027;-80
2022/05/31 05:01:01;;;;;;;29.35;18.20;;;;;;;9.28;83.42;101228.16;4974719;28;20105;-81
2022/05/31 05:03:29;;;;;;;32.40;19.67;;;;;;;9.95;82.18;101307.19;4974886;28;20927;-87
2022/05/31 05:05:59;;;;;;;28.75;19.38;;;;;;;10.09;81.78;101314.19;4974570;28;20035;-79
2022/05/31 05:08:24;;;;;;;29.15;18.67;;;;;;;10.27;81.09;101315.81;4974548;28;20475;-81
2022/05/31 05:10:50;;;;;;;30.48;19.13;;;;;;;10.43;79.87;101308.06;4974689;28;20094;-82
2022/05/31 05:13:15;;;;;;;33.97;19.80;;;;;;;10.45;80.00;101288.16;4974193;28;20047;-85
2022/05/31 05:15:41;;;;;;;32.05;18.45;;;;;;;10.60;78.65;101295.03;4974622;28;20475;-84
2022/05/31 05:18:08;;;;;;;30.13;18.73;;;;;;;10.68;77.51;101275.72;4974442;28;20484;-84
2022/05/31 05:20:35;;;;;;;29.13;19.35;;;;;;;10.96;77.16;101303.41;4974395;28;20114;-85
2022/05/31 05:23:03;;;;;;;33.60;18.45;;;;;;;10.94;76.30;101302.66;4974235;28;20108;-84
2022/05/31 05:25:28;;;;;;;34.67;18.48;;;;;;;10.65;76.92;101253.47;4974360;28;20067;-85
2022/05/31 05:27:54;;;;;;;27.17;18.63;;;;;;;10.52;76.10;101244.75;4974210;28;20066;-86
2022/05/31 05:33:10;;;;;;;29.50;18.77;;;;;;;10.52;76.44;101245.59;4974118;28;20513;-86
2022/05/31 05:35:35;;;;;;;33.28;19.35;;;;;;;10.65;75.79;101273.31;4973951;28;20026;-86
2022/05/31 05:38:07;;;;;;;31.20;19.33;;;;;;;10.10;75.86;101189.41;4974085;28;20023;-85
2022/05/31 05:40:34;;;;;;;35.22;21.02;;;;;;;10.78;75.42;101303.53;4973849;28;20026;-86
2022/05/31 05:42:59;;;;;;;29.23;20.25;;;;;;;10.69;75.98;101293.72;4974144;28;20151;-86
2022/05/31 05:45:24;;;;;;;38.72;22.00;;;;;;;10.70;75.98;101297.13;4973984;28;20030;-84
2022/05/31 05:47:50;;;;;;;36.50;22.17;;;;;;;10.72;76.04;101303.06;4974135;28;20069;-86
2022/05/31 05:50:18;;;;;;;35.28;22.20;;;;;;;10.48;76.14;101261.34;4973822;28;20110;-85
2022/05/31 05:53:09;;;;;;;33.60;22.65;;;;;;;10.56;75.96;101266.91;4973920;28;20131;-86
2022/05/31 05:55:36;;;;;;;36.67;22.35;;;;;;;10.41;76.53;101231.59;5047806;23;20510;-83
2022/05/31 05:58:08;;;;;;;37.90;24.23;;;;;;;10.25;76.48;101198.09;4975115;28;20018;-80
2022/05/31 06:00:35;;;;;;;;;;;;;;;11.07;76.34;101299.28;4992854;28;20034;-84
2022/05/31 06:03:26;;;;;;;30.48;21.33;;;;;;;10.36;75.28;101195.72;4992150;28;19926;-77
2022/05/31 06:05:52;;;;;;;33.88;22.30;;;;;;;11.14;75.39;101304.94;4992539;28;20377;-82
2022/05/31 06:09:24;;;;;;;37.75;22.38;;;;;;;11.16;74.19;101279.84;5110253;27;20405;-82
2022/05/31 06:11:59;;;;;;;40.00;23.30;;;;;;;11.34;73.77;101294.28;5109661;28;20133;-87
2022/05/31 06:14:47;;;;;;;38.08;21.63;;;;;;;11.29;73.58;101292.88;5110443;28;20085;-81
2022/05/31 06:17:39;;;;;;;35.33;22.45;;;;;;;10.34;73.16;101120.13;5108216;28;20042;-79
2022/05/31 06:20:42;;;;;;;35.90;22.45;;;;;;;10.84;73.72;101189.50;5110294;28;20024;-82
2022/05/31 06:23:08;;;;;;;36.25;23.90;;;;;;;11.60;72.95;101292.75;5110212;28;20486;-82
2022/05/31 06:25:33;;;;;;;36.97;22.95;;;;;;;11.59;72.57;101290.22;5110421;28;20051;-83
2022/05/31 06:27:58;;;;;;;38.28;23.50;;;;;;;11.80;72.65;101294.16;5109002;28;20475;-87
2022/05/31 06:30:24;;;;;;;38.85;24.73;;;;;;;11.83;70.53;101283.63;5110084;28;20020;-86
2022/05/31 06:32:51;;;;;;;34.38;24.27;;;;;;;12.12;70.43;101287.00;5110237;28;20031;-83
2022/05/31 06:35:16;;;;;;;39.50;24.40;;;;;;;12.58;69.94;101297.88;5109810;28;20024;-84
2022/05/31 06:37:42;;;;;;;36.92;22.90;;;;;;;13.77;66.26;101282.22;5110137;28;20612;-80
2022/05/31 06:40:08;;;;;;;35.35;22.83;;;;;;;14.87;61.16;101245.75;5110107;28;20027;-82
2022/05/31 06:42:36;;;;;;;35.20;22.30;;;;;;;15.91;58.80;101263.00;5109916;28;20035;-85
2022/05/31 06:45:02;;;;;;;30.58;20.92;;;;;;;16.40;56.14;101293.81;5109919;28;20119;-80
2022/05/31 06:47:27;;;;;;;35.60;22.38;;;;;;;16.77;55.33;101299.53;5109930;28;20170;-80
2022/05/31 06:49:53;;;;;;;36.70;21.13;;;;;;;17.17;53.19;101301.47;5109654;28;20073;-80
2022/05/31 06:57:47;;;;;;;33.20;21.52;;;;;;;17.06;52.02;101273.66;5109976;28;20145;-81
2022/05/31 07:00:16;;;;;;;33.95;21.92;;;;;;;17.05;53.20;101251.13;5109813;28;20031;-82
2022/05/31 07:02:41;;;;;;;28.23;19.50;;;;;;;18.10;49.42;101287.50;5109820;28;20028;-81
2022/05/31 07:05:10;;;;;;;35.30;19.13;;;;;;;18.46;48.99;101257.25;5109460;28;20383;-79
2022/05/31 07:07:36;;;;;;;30.95;18.05;;;;;;;19.30;47.03;101292.31;5109362;28;20407;-79
2022/05/31 07:10:03;;;;;;;25.85;16.65;;;;;;;20.51;43.99;101267.75;5109582;28;20027;-85
2022/05/31 07:12:29;;;;;;;28.00;15.45;;;;;;;21.96;40.26;101279.34;5109564;28;20055;-86
2022/05/31 07:14:54;;;;;;;26.33;16.33;;;;;;;23.10;37.71;101282.91;5109780;28;20081;-84
2022/05/31 07:17:19;;;;;;;24.45;14.45;;;;;;;23.85;34.99;101279.91;5109712;28;20060;-76
2022/05/31 07:19:46;;;;;;;21.35;13.63;;;;;;;23.56;35.55;101240.97;5100866;28;20098;-80
2022/05/31 07:22:12;;;;;;;23.48;14.40;;;;;;;24.13;35.17;101274.16;5095775;28;20024;-83
2022/05/31 07:24:37;;;;;;;21.00;13.50;;;;;;;24.10;34.66;101275.34;5095753;28;20390;-80
2022/05/31 07:27:03;;;;;;;25.35;14.18;;;;;;;23.75;35.73;101250.28;5095346;28;20086;-82
2022/05/31 07:29:28;;;;;;;22.35;13.63;;;;;;;23.98;34.68;101277.53;5095599;28;20105;-81
2022/05/31 07:31:54;;;;;;;24.17;14.52;;;;;;;23.57;35.04;101265.50;5095423;28;20098;-77
2022/05/31 07:34:23;;;;;;;23.85;14.13;;;;;;;23.11;36.42;101273.22;5095779;28;20028;-82
2022/05/31 07:36:49;;;;;;;24.10;14.73;;;;;;;21.75;38.76;101230.63;5095398;28;20028;-81
2022/05/31 07:39:17;;;;;;;23.30;14.35;;;;;;;20.98;40.61;101280.59;5095365;28;20028;-82
2022/05/31 07:41:43;;;;;;;25.52;13.57;;;;;;;20.03;41.94;101246.09;5095256;28;20069;-76
2022/05/31 07:44:09;;;;;;;21.95;12.85;;;;;;;19.36;43.58;101234.13;5095574;28;20387;-77
2022/05/31 07:46:37;;;;;;;21.58;11.57;;;;;;;19.08;43.17;101275.16;5095442;28;20028;-77
2022/05/31 07:49:02;;;;;;;22.10;12.75;;;;;;;18.92;44.35;101278.34;5095458;28;20432;-78
2022/05/31 07:51:28;;;;;;;23.17;12.63;;;;;;;18.71;45.02;101284.69;5095076;28;20024;-82
2022/05/31 07:53:54;;;;;;;28.42;14.52;;;;;;;18.50;45.29;101274.34;5095342;28;20024;-82
2022/05/31 07:56:20;;;;;;;21.98;12.93;;;;;;;18.08;45.62;101258.03;5095030;28;20025;-81
2022/05/31 07:58:47;;;;;;;20.27;11.98;;;;;;;17.68;45.13;101222.28;5094967;28;20032;-76
2022/05/31 08:01:15;;;;;;;23.50;12.38;;;;;;;17.52;46.76;101228.00;5093762;28;20054;-81
2022/05/31 08:03:42;;;;;;;21.77;12.63;;;;;;;17.59;46.19;101268.28;5093845;28;20036;-83
2022/05/31 08:06:10;;;;;;;20.88;11.40;;;;;;;17.25;46.49;101230.38;5094680;28;20027;-77
2022/05/31 08:08:36;;;;;;;20.40;12.00;;;;;;;17.50;46.78;101274.28;5094760;28;20054;-82
2022/05/31 08:11:14;;;;;;;23.08;12.38;;;;;;;17.26;46.55;101245.88;5094829;28;20024;-81
2022/05/31 08:13:40;;;;;;;22.83;12.48;;;;;;;17.38;45.86;101275.34;5094608;28;20482;-81
2022/05/31 08:16:07;;;;;;;21.23;12.50;;;;;;;17.23;46.31;101220.06;5093636;28;20016;-77
2022/05/31 08:18:33;;;;;;;22.45;12.13;;;;;;;17.57;45.94;101266.78;5094898;28;20038;-79
2022/05/31 08:21:01;;;;;;;23.52;12.00;;;;;;;17.69;46.44;101257.88;5094643;28;20020;-85
2022/05/31 08:23:26;;;;;;;18.30;10.57;;;;;;;17.76;45.35;101253.81;5094595;28;20051;-86
2022/05/31 08:25:54;;;;;;;25.58;11.35;;;;;;;17.62;44.75;101215.81;5094506;28;20142;-76
2022/05/31 08:28:19;;;;;;;23.63;12.38;;;;;;;17.72;45.06;101249.84;5094459;28;20505;-85
2022/05/31 08:30:47;;;;;;;22.40;10.77;;;;;;;17.49;45.73;101221.25;5093512;28;20119;-78
2022/05/31 08:33:13;;;;;;;20.30;10.52;;;;;;;17.85;46.07;101245.19;5094494;28;20063;-76
2022/05/31 08:35:38;;;;;;;17.63;10.38;;;;;;;17.91;46.02;101244.66;5094343;28;20492;-86
2022/05/31 08:38:04;;;;;;;21.00;10.77;;;;;;;18.16;47.17;101255.56;5094267;28;20096;-76
2022/05/31 08:40:32;;;;;;;17.15;9.40;;;;;;;18.35;46.87;101251.19;5093999;28;20019;-75
2022/05/31 08:43:05;;;;;;;21.05;11.10;;;;;;;18.33;45.78;101237.44;5109751;28;20111;-78
2022/05/31 08:45:33;;;;;;;20.17;10.27;;;;;;;18.38;44.81;101244.84;5094237;28;20030;-77
2022/05/31 08:48:30;;;;;;;17.60;10.07;;;;;;;18.32;44.81;101250.66;5093894;28;20028;-81
2022/05/31 08:57:01;;;;;;;39.65;12.38;;;;;;;18.24;45.63;101261.78;5094139;28;20465;-78
2022/05/31 08:59:30;;;;;;;21.38;12.48;;;;;;;18.41;46.40;101257.69;5093817;28;20032;-84
2022/05/31 09:02:05;;;;;;;17.55;11.02;;;;;;;18.64;44.66;101263.44;5093839;28;20439;-84
2022/05/31 09:04:43;;;;;;;24.20;10.18;;;;;;;18.50;46.00;101243.78;5093894;28;20386;-82
2022/05/31 09:07:17;;;;;;;18.60;10.13;;;;;;;18.07;44.41;101207.53;5093257;28;20111;-80
2022/05/31 09:10:26;;;;;;;17.58;9.13;;;;;;;18.43;45.33;101253.13;5093642;28;20067;-78
2022/05/31 09:13:05;;;;;;;17.17;9.88;;;;;;;18.36;45.95;101228.47;5090553;28;20459;-88
2022/05/31 09:15:42;;;;;;;18.42;8.60;;;;;;;18.67;43.94;101250.13;5094042;28;20035;-76
2022/05/31 09:18:08;;;;;;;17.00;8.32;;;;;;;18.68;44.29;101249.19;5093543;28;20073;-80
2022/05/31 09:20:40;;;;;;;14.68;9.65;;;;;;;18.56;44.71;101251.06;5093673;28;20040;-76
2022/05/31 09:23:07;;;;;;;17.48;9.90;;;;;;;18.43;43.82;101250.50;5093434;28;20027;-84
2022/05/31 09:25:39;;;;;;;20.13;11.00;;;;;;;17.92;45.20;101199.28;5092681;28;20028;-83
2022/05/31 09:28:28;;;;;;;13.85;7.50;;;;;;;18.23;49.16;101249.69;5093194;28;20028;-91
2022/05/31 09:31:01;;;;;;;16.75;9.05;;;;;;;17.81;49.70;101186.34;5093382;28;20044;-76
2022/05/31 09:33:26;;;;;;;19.15;8.80;;;;;;;18.37;53.68;101248.44;5093262;28;20028;-87
2022/05/31 09:36:03;;;;;;;17.17;10.00;;;;;;;18.46;51.61;101250.22;5093332;28;20043;-90
2022/05/31 09:39:08;;;;;;;17.00;9.70;;;;;;;18.58;49.95;101254.38;5093049;28;20028;-91
2022/05/31 09:41:38;;;;;;;20.88;9.82;;;;;;;18.67;52.60;101241.44;5093134;28;20039;-90
2022/05/31 09:44:26;;;;;;;15.88;9.23;;;;;;;18.65;48.47;101240.75;5093112;28;20565;-86
2022/05/31 09:47:02;;;;;;;18.52;10.23;;;;;;;18.37;50.40;101198.75;5091341;28;20031;-78
2022/05/31 09:49:43;;;;;;;18.27;9.07;;;;;;;18.62;51.33;101215.69;5092991;28;20031;-86
2022/05/31 09:52:42;;;;;;;19.15;11.65;;;;;;;18.72;48.61;101236.63;5092716;28;20044;-85
2022/05/31 09:58:31;;;;;;;17.95;9.23;;;;;;;18.53;46.03;101242.66;5092942;28;20407;-82
2022/05/31 10:01:27;;;;;;;20.63;12.10;;;;;;;18.42;47.28;101234.97;5092896;28;20027;-78
2022/05/31 10:03:59;;;;;;;24.60;12.25;;;;;;;18.39;47.46;101225.63;5011176;28;20145;-89
2022/05/31 10:06:28;;;;;;;25.50;13.43;;;;;;;18.37;47.22;101237.16;5010694;28;20132;-75
2022/05/31 10:08:55;;;;;;;20.52;12.25;;;;;;;18.40;48.87;101198.50;5010567;28;20128;-89
2022/05/31 10:11:26;;;;;;;22.60;12.50;;;;;;;18.52;49.41;101217.47;5010892;28;20044;-85
2022/05/31 10:14:13;;;;;;;22.17;11.30;;;;;;;18.41;49.10;101230.69;5010808;28;20537;-87
2022/05/31 10:16:39;;;;;;;21.40;10.32;;;;;;;18.43;50.41;101234.81;5010750;28;20034;-75
2022/05/31 10:19:08;;;;;;;18.83;11.60;;;;;;;18.61;50.97;101222.72;4994055;28;20038;-87
2022/05/31 10:21:42;;;;;;;20.58;12.18;;;;;;;19.03;48.72;101218.94;5010968;28;20054;-91
2022/05/31 10:24:16;;;;;;;23.20;11.57;;;;;;;19.48;47.74;101226.94;5011192;28;20040;-90
2022/05/31 10:26:44;;;;;;;22.98;12.50;;;;;;;19.79;47.14;101226.69;4994691;28;20382;-84
2022/05/31 10:29:21;;;;;;;20.85;12.27;;;;;;;19.98;45.94;101226.56;5011406;28;20473;-77
2022/05/31 10:31:48;;;;;;;20.83;10.13;;;;;;;20.16;46.06;101222.16;5011660;28;20026;-92
2022/05/31 10:34:44;;;;;;;20.23;11.38;;;;;;;20.28;43.43;101230.63;4994382;28;20081;-90
2022/05/31 10:37:29;;;;;;;20.20;11.30;;;;;;;20.18;44.80;101233.31;5010641;28;20076;-88
2022/05/31 10:40:08;;;;;;;21.92;13.27;;;;;;;20.11;43.50;101219.16;5023503;28;20044;-90
2022/05/31 10:42:41;;;;;;;20.80;10.57;;;;;;;20.21;43.64;101203.34;5091565;28;20031;-85
2022/05/31 10:45:17;;;;;;;22.20;11.75;;;;;;;20.26;40.95;101225.53;5092663;28;20062;-79
2022/05/31 10:47:43;;;;;;;18.13;10.88;;;;;;;19.99;42.11;101217.72;5092629;28;20475;-88
2022/05/31 10:50:10;;;;;;;23.85;11.38;;;;;;;19.79;44.43;101209.16;5093254;28;20016;-90
2022/05/31 10:53:04;;;;;;;17.88;10.20;;;;;;;19.55;44.38;101165.09;5090620;28;20037;-92
2022/05/31 10:55:50;;;;;;;19.13;9.95;;;;;;;19.91;44.87;101222.88;5095231;28;20039;-83
2022/05/31 10:59:12;;;;;;;20.27;10.27;;;;;;;19.89;44.44;101207.28;5096343;28;20024;-90
2022/05/31 11:01:49;;;;;;;21.58;10.75;;;;;;;19.83;44.83;101209.66;5094086;28;20074;-87
2022/05/31 11:04:38;;;;;;;25.08;11.77;;;;;;;19.85;43.75;101211.16;5093700;28;20032;-81
2022/05/31 11:07:09;;;;;;;22.08;12.65;;;;;;;19.79;41.57;101203.09;5093622;28;20024;-87
2022/05/31 11:12:36;;;;;;;21.92;12.10;;;;;;;19.59;44.37;101202.38;5093043;28;20039;-85
2022/05/31 11:15:09;;;;;;;20.02;10.55;;;;;;;19.87;44.03;101213.66;5093665;28;20535;-82
2022/05/31 11:17:46;;;;;;;19.35;11.30;;;;;;;19.86;45.46;101186.63;5093752;28;20028;-78
2022/05/31 11:20:32;;;;;;;19.15;11.45;;;;;;;20.03;43.60;101201.53;5093533;28;20108;-86
2022/05/31 11:23:00;;;;;;;23.23;11.73;;;;;;;20.17;43.33;101225.59;5075580;28;20407;-86
2022/05/31 11:25:56;;;;;;;24.33;13.40;;;;;;;20.18;43.01;101224.63;5093614;28;20047;-79
2022/05/31 11:28:40;;;;;;;18.08;10.07;;;;;;;20.20;42.88;101220.06;5093337;28;20035;-78
2022/05/31 11:31:13;;;;;;;19.98;11.90;;;;;;;19.91;43.04;101204.53;5093367;28;20114;-89
2022/05/31 11:33:57;;;;;;;18.48;10.52;;;;;;;19.88;42.87;101224.00;5093430;28;20055;-86
2022/05/31 11:37:02;;;;;;;16.23;8.18;;;;;;;19.79;47.11;101219.63;5078518;28;20468;-91
2022/05/31 11:39:33;;;;;;;18.63;9.57;;;;;;;19.88;45.78;101218.75;5052990;28;20045;-77
2022/05/31 11:42:17;;;;;;;18.63;10.63;;;;;;;19.91;43.84;101222.88;5036236;28;20388;-88
2022/05/31 11:45:23;;;;;;;22.08;13.45;;;;;;;19.90;43.22;101218.59;5053078;28;20409;-90
2022/05/31 11:48:04;;;;;;;23.15;13.93;;;;;;;19.82;43.18;101226.38;4993422;28;20038;-77
2022/05/31 11:50:48;;;;;;;21.80;12.60;;;;;;;19.75;44.29;101197.28;4993647;28;20102;-87
2022/05/31 11:53:22;;;;;;;23.08;12.95;;;;;;;20.01;44.43;101224.44;4993322;28;20026;-77
2022/05/31 11:56:17;;;;;;;20.00;11.45;;;;;;;20.12;43.97;101223.41;4993420;28;20367;-89
2022/05/31 11:58:50;;;;;;;19.90;11.98;;;;;;;20.11;42.89;101216.53;4993228;28;20042;-85